createdAt,value
2022-11-28T00:02:30.664Z,100797.91
2022-11-28T00:05:03.539Z,100793.59
2022-11-28T00:07:38.239Z,100789.28
2022-11-28T00:10:13.498Z,100780.28
2022-11-28T00:12:46.407Z,100766.88
2022-11-28T00:15:19.235Z,100773.22
2022-11-28T00:17:52.125Z,100773.22
2022-11-28T00:20:25.470Z,100777.94
2022-11-28T00:22:59.670Z,100787.31
2022-11-28T00:25:32.580Z,100785.69
2022-11-28T00:28:05.280Z,100791.66
2022-11-28T00:30:40.608Z,100782.63
2022-11-28T00:33:13.463Z,100786.25
2022-11-28T00:35:46.534Z,100789.75
2022-11-28T00:38:21.094Z,100781.56
2022-11-28T00:40:59.944Z,100777.22
2022-11-28T00:43:33.846Z,100768.66
2022-11-28T00:46:07.235Z,100770.59
2022-11-28T00:48:40.480Z,100766.28
2022-11-28T00:51:18.361Z,100765.84
2022-11-28T00:53:54.072Z,100765.50
2022-11-28T00:56:31.648Z,100761.63
2022-11-28T00:59:04.826Z,100761.38
2022-11-28T01:01:39.356Z,100757.44
2022-11-28T01:04:14.761Z,100757.81
2022-11-28T01:06:49.968Z,100754.38
2022-11-28T01:09:25.304Z,100756.34
2022-11-28T01:11:58.376Z,100760.16
2022-11-28T01:14:31.342Z,100754.00
2022-11-28T01:17:04.042Z,100754.81
2022-11-28T01:19:37.436Z,100752.16
2022-11-28T01:22:10.428Z,100753.31
2022-11-28T01:24:46.722Z,100748.56
2022-11-28T01:27:19.772Z,100745.41
2022-11-28T01:29:52.821Z,100747.09
2022-11-28T01:32:26.048Z,100745.47
2022-11-28T01:34:59.311Z,100747.00
2022-11-28T01:37:32.166Z,100744.16
2022-11-28T01:40:08.166Z,100744.56
2022-11-28T01:42:41.093Z,100739.47
2022-11-28T01:45:19.785Z,100748.78
2022-11-28T01:47:59.200Z,100744.97
2022-11-28T01:50:36.129Z,100741.00
2022-11-28T01:53:12.654Z,100731.72
2022-11-28T01:55:54.062Z,100713.72
2022-11-28T01:58:27.384Z,100722.31
2022-11-28T02:01:00.983Z,100730.47
2022-11-28T02:03:41.768Z,100730.13
2022-11-28T02:06:18.547Z,100733.28
2022-11-28T02:08:52.191Z,100726.94
2022-11-28T02:11:50.956Z,100732.53
2022-11-28T02:14:42.689Z,100731.75
2022-11-28T02:17:22.800Z,100732.44
2022-11-28T02:20:33.306Z,100723.06
2022-11-28T02:23:13.719Z,100716.84
2022-11-28T02:26:19.866Z,100728.53
2022-11-28T02:29:16.127Z,100724.75
2022-11-28T02:32:13.335Z,100727.75
2022-11-28T02:34:54.764Z,100723.50
2022-11-28T02:37:35.744Z,100721.56
2022-11-28T02:40:14.930Z,100720.06
2022-11-28T02:42:59.709Z,100727.06
2022-11-28T02:45:38.870Z,100729.63
2022-11-28T02:48:18.998Z,100724.84
2022-11-28T02:50:59.591Z,100726.44
2022-11-28T02:53:35.042Z,100735.44
2022-11-28T02:56:11.593Z,100726.81
2022-11-28T02:58:44.782Z,100719.44
2022-11-28T03:01:21.934Z,100715.47
2022-11-28T03:04:13.859Z,100717.34
2022-11-28T03:06:58.408Z,100711.47
2022-11-28T03:09:47.283Z,100707.63
2022-11-28T03:12:26.323Z,100717.94
2022-11-28T03:15:02.897Z,100716.38
2022-11-28T03:17:49.354Z,100719.53
2022-11-28T03:20:29.408Z,100717.97
2022-11-28T03:23:14.283Z,100719.22
2022-11-28T03:25:57.213Z,100721.56
2022-11-28T03:28:39.270Z,100717.66
2022-11-28T03:31:18.940Z,100714.06
2022-11-28T03:33:55.091Z,100724.69
2022-11-28T03:36:32.882Z,100723.44
2022-11-28T03:39:10.362Z,100726.63
2022-11-28T03:41:49.751Z,100725.13
2022-11-28T03:44:28.164Z,100718.81
2022-11-28T03:47:03.602Z,100724.78
2022-11-28T03:49:40.257Z,100731.47
2022-11-28T03:52:19.434Z,100733.50
2022-11-28T03:54:56.505Z,100726.53
2022-11-28T03:57:35.618Z,100722.91
2022-11-28T04:00:12.931Z,100735.13
2022-11-28T04:02:53.902Z,100731.44
2022-11-28T04:05:33.813Z,100719.53
2022-11-28T04:08:15.604Z,100719.63
2022-11-28T04:10:57.604Z,100731.28
2022-11-28T04:13:34.170Z,100727.53
2022-11-28T04:16:13.949Z,100728.38
2022-11-28T04:18:53.884Z,100731.34
2022-11-28T04:21:32.016Z,100730.59
2022-11-28T04:24:10.069Z,100727.53
2022-11-28T04:26:48.782Z,100726.72
2022-11-28T04:29:24.451Z,100733.63
2022-11-28T04:31:59.949Z,100735.28
2022-11-28T04:34:35.767Z,100736.94
2022-11-28T04:37:10.139Z,100741.56
2022-11-28T04:39:48.484Z,100749.38
2022-11-28T04:42:24.541Z,100751.72
2022-11-28T04:45:02.421Z,100750.97
2022-11-28T04:47:35.454Z,100742.66
2022-11-28T04:50:09.630Z,100747.44
2022-11-28T04:52:50.373Z,100753.34
2022-11-28T04:55:32.036Z,100751.72
2022-11-28T04:58:12.436Z,100753.34
2022-11-28T05:00:47.228Z,100758.19
2022-11-28T05:03:20.462Z,100759.28
2022-11-28T05:05:53.884Z,100746.34
2022-11-28T05:08:26.841Z,100746.41
2022-11-28T05:11:01.067Z,100751.19
2022-11-28T05:13:34.042Z,100758.16
2022-11-28T05:16:07.236Z,100753.50
2022-11-28T05:18:40.078Z,100756.63
2022-11-28T05:21:14.126Z,100758.63
2022-11-28T05:23:47.539Z,100762.88
2022-11-28T05:26:22.601Z,100764.34
2022-11-28T05:28:57.082Z,100766.00
2022-11-28T05:31:30.640Z,100761.00
2022-11-28T05:34:03.528Z,100758.97
2022-11-28T05:36:36.419Z,100757.41
2022-11-28T05:39:09.276Z,100759.63
2022-11-28T05:41:43.665Z,100762.78
2022-11-28T05:44:16.463Z,100778.47
2022-11-28T05:46:50.623Z,100788.72
2022-11-28T05:49:24.071Z,100794.19
2022-11-28T05:51:57.324Z,100791.63
2022-11-28T05:54:30.586Z,100791.97
2022-11-28T05:57:06.667Z,100788.09
2022-11-28T05:59:39.462Z,100794.41
2022-11-28T06:02:12.416Z,100794.13
2022-11-28T06:04:45.552Z,100791.88
2022-11-28T06:07:18.922Z,100793.41
2022-11-28T06:09:51.908Z,100796.97
2022-11-28T06:12:26.345Z,100795.78
2022-11-28T06:14:59.185Z,100804.41
2022-11-28T06:17:32.563Z,100796.50
2022-11-28T06:20:07.629Z,100793.44
2022-11-28T06:22:40.684Z,100788.81
2022-11-28T06:25:13.438Z,100791.53
2022-11-28T06:27:47.636Z,100791.88
2022-11-28T06:30:21.518Z,100798.59
2022-11-28T06:32:56.062Z,100786.00
2022-11-28T06:35:30.702Z,100797.34
2022-11-28T06:38:11.442Z,100799.72
2022-11-28T06:40:47.333Z,100801.19
2022-11-28T06:43:23.391Z,100802.09
2022-11-28T06:46:01.525Z,100800.41
2022-11-28T06:48:43.633Z,100791.97
2022-11-28T06:51:18.144Z,100802.09
2022-11-28T06:53:52.771Z,100805.16
2022-11-28T06:56:33.307Z,100806.75
2022-11-28T06:59:08.184Z,100800.56
2022-11-28T07:01:46.255Z,100810.31
2022-11-28T07:04:20.617Z,100810.66
2022-11-28T07:06:56.134Z,100814.66
2022-11-28T07:09:32.972Z,100816.97
2022-11-28T07:12:07.860Z,100810.66
2022-11-28T07:14:43.444Z,100810.66
2022-11-28T07:17:21.521Z,100813.06
2022-11-28T07:20:04.318Z,100814.66
2022-11-28T07:22:39.565Z,100817.72
2022-11-28T07:25:14.241Z,100819.28
2022-11-28T07:27:49.182Z,100828.00
2022-11-28T07:30:24.149Z,100832.69
2022-11-28T07:32:57.602Z,100834.28
2022-11-28T07:35:31.584Z,100833.84
2022-11-28T07:38:06.262Z,100837.38
2022-11-28T07:40:39.629Z,100837.84
2022-11-28T07:43:13.356Z,100845.75
2022-11-28T07:46:00.686Z,100841.34
2022-11-28T07:48:36.021Z,100839.84
2022-11-28T07:51:11.150Z,100842.13
2022-11-28T07:53:47.359Z,100847.81
2022-11-28T07:56:39.389Z,100856.00
2022-11-28T07:59:23.097Z,100858.00
2022-11-28T08:01:58.193Z,100862.41
2022-11-28T08:04:33.004Z,100861.63
2022-11-28T08:07:06.967Z,100868.75
2022-11-28T08:09:44.585Z,100868.78
2022-11-28T08:12:17.986Z,100865.81
2022-11-28T08:14:51.386Z,100867.88
2022-11-28T08:17:25.857Z,100862.56
2022-11-28T08:19:59.988Z,100863.72
2022-11-28T08:22:34.747Z,100871.97
2022-11-28T08:25:10.841Z,100861.41
2022-11-28T08:27:46.393Z,100858.28
2022-11-28T08:30:20.546Z,100857.94
2022-11-28T08:32:57.579Z,100864.53
2022-11-28T08:35:33.495Z,100860.22
2022-11-28T08:38:07.555Z,100865.41
2022-11-28T08:40:40.556Z,100870.09
2022-11-28T08:43:13.465Z,100861.88
2022-11-28T08:45:49.600Z,100865.06
2022-11-28T08:48:27.191Z,100854.50
2022-11-28T08:51:00.986Z,100854.13
2022-11-28T08:53:39.940Z,100852.22
2022-11-28T08:56:14.486Z,100865.09
2022-11-28T08:58:47.672Z,100869.41
2022-11-28T09:01:23.915Z,100869.50
2022-11-28T09:04:00.527Z,100875.41
2022-11-28T09:06:34.499Z,100875.75
2022-11-28T09:09:09.312Z,100881.28
2022-11-28T09:11:42.683Z,100882.06
2022-11-28T09:14:16.329Z,100880.56
2022-11-28T09:16:52.960Z,100886.06
2022-11-28T09:19:28.135Z,100875.84
2022-11-28T09:22:01.777Z,100881.78
2022-11-28T09:24:35.068Z,100877.41
2022-11-28T09:27:08.101Z,100889.66
2022-11-28T09:29:42.853Z,100891.69
2022-11-28T09:32:16.647Z,100892.09
2022-11-28T09:34:51.825Z,100894.84
2022-11-28T09:37:26.554Z,100907.06
2022-11-28T09:40:17.198Z,100902.69
2022-11-28T09:43:02.759Z,100898.94
2022-11-28T09:45:40.013Z,100901.59
2022-11-28T09:48:26.773Z,100895.91
2022-11-28T09:51:07.084Z,100902.13
2022-11-28T09:53:48.087Z,100895.84
2022-11-28T09:56:25.406Z,100897.41
2022-11-28T09:59:04.892Z,100894.59
2022-11-28T10:01:45.533Z,100895.78
2022-11-28T10:04:32.074Z,100902.84
2022-11-28T10:07:16.644Z,100903.69
2022-11-28T10:10:02.072Z,100908.41
2022-11-28T10:13:03.395Z,100904.47
2022-11-28T10:15:46.041Z,100906.56
2022-11-28T10:18:52.599Z,100903.81
2022-11-28T10:21:35.350Z,100910.13
2022-11-28T10:24:19.163Z,100907.47
2022-11-28T10:27:00.693Z,100906.69
2022-11-28T10:29:44.857Z,100902.75
2022-11-28T10:32:25.292Z,100908.66
2022-11-28T10:35:05.389Z,100911.47
2022-11-28T10:37:40.446Z,100914.22
2022-11-28T10:40:26.935Z,100915.41
2022-11-28T10:43:03.684Z,100917.75
2022-11-28T10:45:47.661Z,100916.97
2022-11-28T10:48:40.987Z,100922.13
2022-11-28T10:51:31.302Z,100920.16
2022-11-28T10:54:21.972Z,100927.63
2022-11-28T10:57:07.561Z,100926.06
2022-11-28T10:59:57.760Z,100929.59
2022-11-28T11:02:37.477Z,100933.91
2022-11-28T11:05:14.479Z,100933.13
2022-11-28T11:07:51.346Z,100933.19
2022-11-28T11:10:34.607Z,100935.09
2022-11-28T11:13:19.722Z,100924.56
2022-11-28T11:15:59.838Z,100931.69
2022-11-28T11:18:53.274Z,100923.44
2022-11-28T11:21:28.272Z,100922.25
2022-11-28T11:24:14.436Z,100919.91
2022-11-28T11:26:49.945Z,100919.56
2022-11-28T11:29:31.805Z,100913.28
2022-11-28T11:32:07.760Z,100915.25
2022-11-28T11:34:47.059Z,100915.25
2022-11-28T11:37:31.467Z,100921.53
2022-11-28T11:40:22.075Z,100912.16
2022-11-28T11:42:58.178Z,100910.97
2022-11-28T11:45:35.179Z,100915.28
2022-11-28T11:48:13.740Z,100911.38
2022-11-28T11:50:55.982Z,100908.63
2022-11-28T11:53:28.972Z,100917.69
2022-11-28T11:56:03.616Z,100912.66
2022-11-28T11:58:44.307Z,100913.91
2022-11-28T12:01:22.266Z,100924.09
2022-11-28T12:04:08.502Z,100921.78
2022-11-28T12:06:54.714Z,100923.41
2022-11-28T12:09:32.366Z,100921.09
2022-11-28T12:12:15.107Z,100925.88
2022-11-28T12:14:50.891Z,100924.28
2022-11-28T12:17:53.407Z,100923.09
2022-11-28T12:20:46.394Z,100923.53
2022-11-28T12:23:44.935Z,100918.03
2022-11-28T12:26:23.809Z,100920.75
2022-11-28T12:29:36.552Z,100923.50
2022-11-28T12:32:26.446Z,100933.72
2022-11-28T12:35:19.953Z,100932.88
2022-11-28T12:38:11.729Z,100932.13
2022-11-28T12:40:57.212Z,100934.09
2022-11-28T12:43:43.533Z,100943.47
2022-11-28T12:46:25.285Z,100941.53
2022-11-28T12:49:14.373Z,100945.81
2022-11-28T12:52:04.420Z,100936.81
2022-11-28T12:55:09.564Z,100939.97
2022-11-28T12:57:48.362Z,100944.28
2022-11-28T13:00:24.193Z,100945.03
2022-11-28T13:03:12.737Z,100943.06
2022-11-28T13:05:57.308Z,100945.38
2022-11-28T13:08:52.648Z,100939.88
2022-11-28T13:11:46.111Z,100939.47
2022-11-28T13:14:26.195Z,100948.56
2022-11-28T13:17:07.585Z,100951.69
2022-11-28T13:19:49.962Z,100955.53
2022-11-28T13:22:25.687Z,100958.69
2022-11-28T13:25:11.039Z,100953.97
2022-11-28T13:27:49.977Z,100957.06
2022-11-28T13:30:26.097Z,100956.72
2022-11-28T13:33:04.416Z,100959.44
2022-11-28T13:35:38.604Z,100962.56
2022-11-28T13:38:37.250Z,100968.91
2022-11-28T13:41:52.722Z,100959.41
2022-11-28T13:44:20.032Z,100961.78
2022-11-28T13:46:53.588Z,100967.28
2022-11-28T13:49:29.602Z,100968.13
2022-11-28T13:52:33.088Z,100965.78
2022-11-28T13:55:06.423Z,100971.22
2022-11-28T13:57:40.594Z,100970.03
2022-11-28T14:00:23.718Z,100974.34
2022-11-28T14:03:00.045Z,100966.44
2022-11-28T14:05:36.404Z,100970.38
2022-11-28T14:08:09.914Z,100971.16
2022-11-28T14:11:27.731Z,100975.09
2022-11-28T14:14:47.404Z,100972.34
2022-11-28T14:17:39.859Z,100974.28
2022-11-28T14:20:26.213Z,100983.72
2022-11-28T14:23:18.435Z,100991.59
2022-11-28T14:25:55.818Z,100993.19
2022-11-28T14:28:37.102Z,100995.94
2022-11-28T14:31:26.140Z,101002.59
2022-11-28T14:34:03.646Z,101008.09
2022-11-28T14:36:42.197Z,101009.28
2022-11-28T14:39:36.326Z,101013.22
2022-11-28T14:45:44.599Z,101026.84
2022-11-28T14:48:21.757Z,101022.53
2022-11-28T14:51:01.314Z,101028.41
2022-11-28T14:53:48.179Z,101028.00
2022-11-28T14:56:29.495Z,101030.34
2022-11-28T14:59:04.512Z,101032.25
2022-11-28T15:01:53.965Z,101037.34
2022-11-28T15:04:52.048Z,101034.91
2022-11-28T15:07:36.650Z,101038.38
2022-11-28T15:10:15.769Z,101036.75
2022-11-28T15:13:02.452Z,101037.44
2022-11-28T15:15:36.111Z,101044.53
2022-11-28T15:18:12.401Z,101052.75
2022-11-28T15:20:53.832Z,101062.94
2022-11-28T15:23:32.190Z,101060.53
2022-11-28T15:26:07.069Z,101061.78
2022-11-28T15:28:40.066Z,101060.13
2022-11-28T15:31:22.849Z,101060.13
2022-11-28T15:34:00.813Z,101060.75
2022-11-28T15:36:34.897Z,101054.81
2022-11-28T15:39:31.230Z,101063.44
2022-11-28T15:42:10.548Z,101062.00
2022-11-28T15:44:45.347Z,101070.19
2022-11-28T15:47:26.573Z,101070.91
2022-11-28T15:50:17.205Z,101079.56
2022-11-28T15:52:58.533Z,101084.31
2022-11-28T15:55:37.234Z,101087.97
2022-11-28T15:58:21.048Z,101094.59
2022-11-28T16:01:00.529Z,101090.66
2022-11-28T16:03:41.352Z,101090.66
2022-11-28T16:06:14.962Z,101090.72
2022-11-28T16:08:54.224Z,101093.03
2022-11-28T16:11:30.837Z,101094.63
2022-11-28T16:14:10.242Z,101096.22
2022-11-28T16:16:43.803Z,101083.63
2022-11-28T16:19:25.198Z,101093.09
2022-11-28T16:22:03.418Z,101094.59
2022-11-28T16:24:46.428Z,101099.69
2022-11-28T16:27:38.293Z,101104.78
2022-11-28T16:30:30.316Z,101097.66
2022-11-28T16:33:04.975Z,101089.03
2022-11-28T16:35:41.701Z,101091.84
2022-11-28T16:38:17.723Z,101083.59
2022-11-28T16:40:51.105Z,101085.56
2022-11-28T16:43:32.451Z,101089.09
2022-11-28T16:46:10.377Z,101093.28
2022-11-28T16:48:49.554Z,101100.75
2022-11-28T16:51:40.519Z,101114.00
2022-11-28T16:54:31.434Z,101114.00
2022-11-28T16:57:16.041Z,101115.94
2022-11-28T16:59:53.169Z,101114.75
2022-11-28T17:02:27.282Z,101123.38
2022-11-28T17:05:00.478Z,101124.59
2022-11-28T17:07:35.576Z,101127.63
2022-11-28T17:10:13.045Z,101125.66
2022-11-28T17:12:48.035Z,101127.88
2022-11-28T17:15:31.937Z,101136.84
2022-11-28T17:18:38.589Z,101132.38
2022-11-28T17:21:15.599Z,101136.06
2022-11-28T17:23:49.255Z,101138.00
2022-11-28T17:26:22.681Z,101141.41
2022-11-28T17:28:56.263Z,101141.81
2022-11-28T17:31:35.965Z,101144.69
2022-11-28T17:34:15.242Z,101151.63
2022-11-28T17:36:48.902Z,101150.31
2022-11-28T17:39:22.260Z,101153.31
2022-11-28T17:41:56.994Z,101148.97
2022-11-28T17:44:32.381Z,101151.22
2022-11-28T17:47:07.377Z,101148.28
2022-11-28T17:49:46.132Z,101156.66
2022-11-28T17:52:21.152Z,101155.31
2022-11-28T17:55:00.859Z,101162.22
2022-11-28T17:57:38.134Z,101148.63
2022-11-28T18:00:13.925Z,101168.25
2022-11-28T18:02:49.180Z,101159.94
2022-11-28T18:05:22.442Z,101167.72
2022-11-28T18:07:56.005Z,101163.03
2022-11-28T18:10:29.352Z,101161.00
2022-11-28T18:13:08.308Z,101174.44
2022-11-28T18:15:43.763Z,101168.94
2022-11-28T18:18:18.141Z,101173.69
2022-11-28T18:20:53.148Z,101170.47
2022-11-28T18:23:26.360Z,101181.25
2022-11-28T18:25:59.503Z,101174.84
2022-11-28T18:28:33.195Z,101172.31
2022-11-28T18:31:11.562Z,101179.75
2022-11-28T18:33:47.416Z,101165.81
2022-11-28T18:36:22.955Z,101170.94
2022-11-28T18:38:57.007Z,101178.88
2022-11-28T18:41:31.653Z,101180.34
2022-11-28T18:44:05.936Z,101177.78
2022-11-28T18:46:40.103Z,101179.66
2022-11-28T18:49:19.090Z,101183.81
2022-11-28T18:51:52.456Z,101191.81
2022-11-28T18:54:27.436Z,101192.19
2022-11-28T18:57:00.690Z,101195.06
2022-11-28T18:59:34.391Z,101202.25
2022-11-28T19:02:14.119Z,101204.47
2022-11-28T19:04:48.291Z,101206.34
2022-11-28T19:07:22.248Z,101214.81
2022-11-28T19:09:55.668Z,101205.28
2022-11-28T19:12:31.544Z,101204.84
2022-11-28T19:15:05.016Z,101213.78
2022-11-28T19:17:38.841Z,101209.97
2022-11-28T19:20:13.815Z,101205.38
2022-11-28T19:22:49.798Z,101217.88
2022-11-28T19:25:23.345Z,101209.69
2022-11-28T19:27:56.545Z,101210.22
2022-11-28T19:30:29.780Z,101211.22
2022-11-28T19:33:05.847Z,101211.28
2022-11-28T19:35:40.249Z,101216.25
2022-11-28T19:38:14.429Z,101222.50
2022-11-28T19:40:50.592Z,101213.75
2022-11-28T19:43:25.171Z,101218.88
2022-11-28T19:45:59.270Z,101218.44
2022-11-28T19:48:35.044Z,101220.34
2022-11-28T19:51:10.766Z,101226.38
2022-11-28T19:53:45.871Z,101228.44
2022-11-28T19:56:22.622Z,101242.97
2022-11-28T19:58:57.396Z,101245.34
2022-11-28T20:01:30.718Z,101236.66
2022-11-28T20:04:03.554Z,101247.69
2022-11-28T20:06:46.814Z,101245.56
2022-11-28T20:09:35.980Z,101245.16
2022-11-28T20:12:10.402Z,101252.22
2022-11-28T20:14:43.577Z,101252.22
2022-11-28T20:17:17.871Z,101244.34
2022-11-28T20:19:53.915Z,101255.69
2022-11-28T20:22:30.935Z,101257.47
2022-11-28T20:25:08.656Z,101262.84
2022-11-28T20:27:42.010Z,101254.91
2022-11-28T20:30:16.735Z,101258.63
2022-11-28T20:32:50.512Z,101257.22
2022-11-28T20:35:26.746Z,101259.94
2022-11-28T20:38:01.235Z,101264.28
2022-11-28T20:40:35.091Z,101264.16
2022-11-28T20:43:07.779Z,101270.13
2022-11-28T20:45:42.598Z,101265.72
2022-11-28T20:48:15.877Z,101272.13
2022-11-28T20:50:49.445Z,101277.34
2022-11-28T20:53:26.942Z,101282.44
2022-11-28T20:56:01.987Z,101281.56
2022-11-28T20:58:35.166Z,101279.63
2022-11-28T21:01:14.258Z,101290.06
2022-11-28T21:03:48.090Z,101288.94
2022-11-28T21:06:26.224Z,101288.94
2022-11-28T21:09:01.173Z,101283.97
2022-11-28T21:11:56.122Z,101291.03
2022-11-28T21:14:30.961Z,101295.66
2022-11-28T21:17:09.395Z,101298.41
2022-11-28T21:19:48.615Z,101297.41
2022-11-28T21:22:25.596Z,101292.91
2022-11-28T21:25:04.127Z,101293.19
2022-11-28T21:27:46.625Z,101292.66
2022-11-28T21:30:19.623Z,101291.94
2022-11-28T21:32:52.374Z,101290.19
2022-11-28T21:35:25.488Z,101294.06
2022-11-28T21:37:58.731Z,101291.66
2022-11-28T21:40:35.597Z,101293.63
2022-11-28T21:43:08.576Z,101297.31
2022-11-28T21:45:44.739Z,101295.38
2022-11-28T21:48:19.213Z,101301.13
2022-11-28T21:50:52.648Z,101308.19
2022-11-28T21:53:27.162Z,101301.31
2022-11-28T21:56:02.708Z,101298.66
2022-11-28T21:58:42.344Z,101303.44
2022-11-28T22:01:20.324Z,101310.50
2022-11-28T22:03:59.140Z,101303.25
2022-11-28T22:06:35.173Z,101306.09
2022-11-28T22:09:09.848Z,101300.78
2022-11-28T22:11:46.402Z,101302.19
2022-11-28T22:14:36.498Z,101301.75
2022-11-28T22:17:10.380Z,101304.50
2022-11-28T22:19:43.839Z,101301.31
2022-11-28T22:22:19.267Z,101305.91
2022-11-28T22:24:52.206Z,101304.22
2022-11-28T22:27:31.483Z,101312.09
2022-11-28T22:30:05.422Z,101320.56
2022-11-28T22:32:41.785Z,101318.63
2022-11-28T22:35:14.792Z,101324.03
2022-11-28T22:37:54.275Z,101322.34
2022-11-28T22:40:27.418Z,101329.16
2022-11-28T22:43:03.559Z,101329.94
2022-11-28T22:48:34.497Z,101339.38
2022-11-28T22:51:11.484Z,101334.50
2022-11-28T22:53:45.485Z,101341.38
2022-11-28T22:56:20.086Z,101342.28
2022-11-28T22:58:56.631Z,101345.28
2022-11-28T23:01:38.355Z,101337.97
2022-11-28T23:04:12.270Z,101341.38
2022-11-28T23:06:45.800Z,101346.94
2022-11-28T23:09:22.157Z,101349.28
2022-11-28T23:11:56.476Z,101343.69
2022-11-28T23:14:31.648Z,101342.72
2022-11-28T23:17:05.103Z,101346.66
2022-11-28T23:20:05.410Z,101350.13
2022-11-28T23:22:38.834Z,101358.94
2022-11-28T23:25:12.374Z,101356.03
2022-11-28T23:27:48.556Z,101350.13
2022-11-28T23:30:25.345Z,101349.88
2022-11-28T23:32:58.296Z,101350.56
2022-11-28T23:35:31.170Z,101355.47
2022-11-28T23:38:04.169Z,101351.72
2022-11-28T23:40:37.224Z,101346.59
2022-11-28T23:43:10.318Z,101349.56
2022-11-28T23:45:44.633Z,101352.75
2022-11-28T23:48:18.513Z,101352.66
2022-11-28T23:50:51.399Z,101352.66
2022-11-28T23:53:24.385Z,101367.25
2022-11-28T23:56:14.289Z,101361.31
2022-11-28T23:58:49.173Z,101361.22
